Time;durP1;ratioP1;P1;durP2;ratioP2;P2;SDS_P1;SDS_P2;PMS_P1;PMS_P2;Temp;Humidity;BMP_temperature;BMP_pressure;BME280_temperature;BME280_humidity;BME280_pressure;Samples;Min_cycle;Max_cycle;Signal;HPM_P1;HPM_P2
2023/03/04 04:05:43;;;;;;;19.50;2.60;;;6.30;99.90;;;;;;4896579;23;20051;-91
2023/03/04 04:08:13;;;;;;;6.65;1.55;;;6.30;99.90;;;;;;4895586;29;20044;-90
2023/03/04 04:10:40;;;;;;;16.08;2.67;;;6.90;99.90;;;;;;4898100;29;20115;-89
2023/03/04 04:13:06;;;;;;;13.30;1.85;;;6.80;99.90;;;;;;4898218;29;20481;-89
2023/03/04 04:15:37;;;;;;;10.68;1.98;;;6.60;99.90;;;;;;4898504;29;20039;-92
2023/03/04 04:18:03;;;;;;;13.30;2.55;;;6.10;99.90;;;;;;4900971;29;20025;-90
2023/03/04 04:20:35;;;;;;;12.10;2.33;;;6.60;99.90;;;;;;4902094;29;20104;-90
2023/03/04 04:23:04;;;;;;;11.07;1.85;;;7.20;99.90;;;;;;4902166;29;20033;-91
2023/03/04 04:25:35;;;;;;;18.63;2.00;;;6.70;99.90;;;;;;4901788;29;20033;-90
2023/03/04 04:28:01;;;;;;;17.73;2.13;;;6.80;99.90;;;;;;4901612;29;20021;-90
2023/03/04 04:30:27;;;;;;;17.38;2.60;;;6.10;99.90;;;;;;4901791;29;20037;-90
2023/03/04 04:33:00;;;;;;;7.70;2.47;;;6.60;99.90;;;;;;4901823;29;20029;-90
2023/03/04 04:35:30;;;;;;;8.02;1.30;;;6.60;99.90;;;;;;4902074;29;20036;-91
2023/03/04 04:37:58;;;;;;;12.40;1.60;;;6.50;99.90;;;;;;4901545;29;20037;-91
2023/03/04 04:40:30;;;;;;;15.02;1.95;;;6.60;99.90;;;;;;4901805;29;20366;-90
2023/03/04 04:42:59;;;;;;;23.35;2.08;;;6.10;99.90;;;;;;4901113;29;20028;-90
2023/03/04 04:45:30;;;;;;;20.33;2.38;;;7.00;99.90;;;;;;4901649;29;20075;-90
2023/03/04 04:48:02;;;;;;;13.80;3.13;;;6.50;99.90;;;;;;4901298;29;20427;-90
2023/03/04 04:50:30;;;;;;;12.82;1.77;;;6.30;99.90;;;;;;4901337;29;20045;-90
2023/03/04 04:53:02;;;;;;;12.10;1.92;;;6.00;99.90;;;;;;4901360;29;20032;-91
2023/03/04 04:55:33;;;;;;;16.90;2.65;;;6.80;99.90;;;;;;4901577;29;20492;-91
2023/03/04 04:57:59;;;;;;;9.32;1.52;;;5.60;99.90;;;;;;4901056;29;20028;-90
2023/03/04 05:00:25;;;;;;;10.25;1.63;;;6.00;99.90;;;;;;4932086;23;20078;-90
2023/03/04 05:05:19;;;;;;;17.60;2.17;;;6.00;99.90;;;;;;4958203;23;20468;-90
2023/03/04 05:07:51;;;;;;;16.15;2.92;;;6.20;99.90;;;;;;4938831;29;20024;-90
2023/03/04 05:10:22;;;;;;;16.05;2.05;;;6.20;99.90;;;;;;4939338;29;20047;-90
2023/03/04 05:12:51;;;;;;;9.43;1.73;;;7.00;99.90;;;;;;4938527;29;20032;-90
2023/03/04 05:15:23;;;;;;;12.50;2.15;;;5.80;99.90;;;;;;4939111;29;20028;-91
2023/03/04 05:17:54;;;;;;;10.95;1.58;;;7.20;99.90;;;;;;4938448;29;20031;-91
2023/03/04 05:20:32;;;;;;;11.27;1.92;;;6.70;99.90;;;;;;4939297;29;20020;-91
2023/03/04 05:25:32;;;;;;;11.88;1.80;;;6.00;99.90;;;;;;4943323;23;20058;-91
2023/03/04 05:30:32;;;;;;;10.05;1.80;;;6.00;99.90;;;;;;4942776;23;20067;-91
2023/03/04 05:33:00;;;;;;;17.83;1.73;;;5.90;99.90;;;;;;4938061;29;20028;-91
2023/03/04 05:35:32;;;;;;;14.25;1.60;;;6.00;99.90;;;;;;4947976;23;21090;-91
2023/03/04 05:38:05;;;;;;;8.88;1.77;;;6.10;99.90;;;;;;4953963;23;20139;-91
2023/03/04 05:40:40;;;;;;;10.52;2.10;;;5.70;99.90;;;;;;4970625;23;20562;-89
2023/03/04 05:43:10;;;;;;;9.90;2.22;;;6.70;99.90;;;;;;4945115;23;20043;-90
2023/03/04 05:45:41;;;;;;;8.90;2.03;;;6.60;99.90;;;;;;4948639;23;20051;-90
2023/03/04 05:48:10;;;;;;;17.13;2.63;;;6.80;99.90;;;;;;4957688;29;20542;-89
2023/03/04 05:50:36;;;;;;;16.83;2.78;;;6.50;99.90;;;;;;4960148;23;20143;-90
2023/03/04 05:53:02;;;;;;;11.65;2.63;;;6.60;99.90;;;;;;4938226;29;20066;-89
2023/03/04 05:55:36;;;;;;;13.70;2.40;;;6.10;99.90;;;;;;4947049;23;20059;-89
2023/03/04 05:58:14;;;;;;;11.60;3.35;;;7.10;99.90;;;;;;4957610;29;20047;-89
2023/03/04 06:00:43;;;;;;;12.25;2.42;;;5.60;99.90;;;;;;4956904;29;20038;-88
2023/03/04 06:03:22;;;;;;;19.58;3.97;;;6.10;99.90;;;;;;4956963;29;20027;-90
2023/03/04 06:05:54;;;;;;;14.10;3.40;;;6.80;99.90;;;;;;4957173;29;20032;-90
2023/03/04 06:08:19;;;;;;;8.82;3.13;;;6.10;99.90;;;;;;4956397;29;20039;-88
2023/03/04 06:10:51;;;;;;;19.25;4.65;;;6.50;99.90;;;;;;4957025;29;20035;-90
2023/03/04 06:13:23;;;;;;;12.23;3.45;;;6.50;99.90;;;;;;4957179;29;20356;-91
2023/03/04 06:15:56;;;;;;;13.07;3.25;;;6.50;99.90;;;;;;4956695;29;20082;-90
2023/03/04 06:18:28;;;;;;;17.30;3.30;;;6.10;99.90;;;;;;4957004;29;20027;-92
2023/03/04 06:21:01;;;;;;;15.43;2.92;;;6.60;99.90;;;;;;4956420;29;20035;-92
2023/03/04 06:23:30;;;;;;;16.55;3.45;;;6.10;99.90;;;;;;4956776;29;20023;-90
2023/03/04 06:26:08;;;;;;;18.20;3.25;;;7.20;99.90;;;;;;4957138;29;20027;-91
2023/03/04 06:28:43;;;;;;;11.93;2.97;;;6.80;99.90;;;;;;4948167;29;20106;-91
2023/03/04 06:31:08;;;;;;;17.55;3.05;;;5.90;99.90;;;;;;4952850;29;20484;-91
2023/03/04 06:33:36;;;;;;;14.70;3.67;;;6.50;99.90;;;;;;4946879;29;20144;-91
2023/03/04 06:36:06;;;;;;;10.55;2.53;;;6.00;99.90;;;;;;4964671;29;20403;-91
2023/03/04 06:38:40;;;;;;;10.25;3.42;;;6.00;99.90;;;;;;4960331;29;20092;-92
2023/03/04 06:41:10;;;;;;;18.38;3.47;;;6.60;99.90;;;;;;4968664;28;20038;-92
2023/03/04 06:43:42;;;;;;;10.18;2.03;;;6.60;99.90;;;;;;4962318;29;20107;-92
2023/03/04 06:46:10;;;;;;;18.33;3.38;;;6.70;99.90;;;;;;4956809;29;20039;-91
2023/03/04 06:48:48;;;;;;;12.18;2.70;;;6.10;99.90;;;;;;4966676;29;20383;-92
2023/03/04 06:51:17;;;;;;;11.60;2.10;;;6.50;99.90;;;;;;4969651;29;20082;-91
2023/03/04 06:53:45;;;;;;;14.57;3.08;;;6.60;99.90;;;;;;4959493;29;20023;-91
2023/03/04 06:56:15;;;;;;;10.15;2.42;;;6.70;99.90;;;;;;4955442;29;20055;-91
2023/03/04 06:58:48;;;;;;;12.35;2.13;;;6.60;99.90;;;;;;4949396;29;20027;-91
2023/03/04 07:01:18;;;;;;;14.70;2.92;;;6.50;99.90;;;;;;4953261;29;20023;-91
2023/03/04 07:03:48;;;;;;;15.27;2.70;;;6.10;99.90;;;;;;4949363;29;20131;-91
2023/03/04 07:06:25;;;;;;;13.85;2.42;;;6.40;99.90;;;;;;4942418;29;20032;-91
2023/03/04 07:08:51;;;;;;;13.57;2.70;;;7.60;99.90;;;;;;4942098;29;20479;-91
2023/03/04 07:11:21;;;;;;;18.95;2.70;;;7.30;99.90;;;;;;4944933;29;20059;-92
2023/03/04 07:13:57;;;;;;;28.17;3.45;;;6.60;99.90;;;;;;4944147;29;20110;-91
2023/03/04 07:18:57;;;;;;;18.92;2.53;;;6.40;99.90;;;;;;4922243;23;20051;-92
2023/03/04 07:21:26;;;;;;;12.52;3.20;;;6.90;99.90;;;;;;4915670;29;20024;-91
2023/03/04 07:23:58;;;;;;;7.70;2.47;;;6.40;99.90;;;;;;4917237;29;20085;-92
2023/03/04 07:26:26;;;;;;;10.00;2.70;;;6.40;99.90;;;;;;4917245;29;20091;-91
2023/03/04 07:29:00;;;;;;;11.57;2.60;;;6.90;99.90;;;;;;4917318;29;20111;-91
2023/03/04 07:31:33;;;;;;;14.63;2.65;;;6.70;99.90;;;;;;4917528;29;20032;-92
2023/03/04 07:39:30;;;;;;;14.25;1.90;;;6.30;99.90;;;;;;4915796;29;20072;-90
2023/03/04 07:45:00;;;;;;;13.48;2.03;;;6.10;99.90;;;;;;4934830;23;20055;-92
2023/03/04 07:47:28;;;;;;;10.10;1.98;;;6.80;99.90;;;;;;4926179;29;20044;-91
2023/03/04 07:50:15;;;;;;;12.63;2.22;;;6.40;99.90;;;;;;4937621;23;20056;-91
2023/03/04 07:55:16;;;;;;;8.75;2.10;;;6.40;99.90;;;;;;4960718;23;20078;-91
2023/03/04 08:00:15;;;;;;;11.65;2.75;;;6.30;99.90;;;;;;4930190;23;20117;-91
2023/03/04 08:02:43;;;;;;;12.57;2.35;;;6.40;99.90;;;;;;4916863;29;20016;-91
2023/03/04 08:05:09;;;;;;;11.20;1.70;;;6.90;99.90;;;;;;4920545;23;20501;-91
2023/03/04 08:10:04;;;;;;;10.27;2.15;;;6.40;99.90;;;;;;4924131;23;20505;-91
2023/03/04 08:12:36;;;;;;;4.60;1.40;;;6.40;99.90;;;;;;4948824;29;20040;-92
2023/03/04 08:15:04;;;;;;;7.03;2.08;;;6.90;99.90;;;;;;4936656;29;20055;-92
2023/03/04 08:20:09;;;;;;;6.45;1.50;;;6.40;99.90;;;;;;4938728;23;20048;-94
2023/03/04 08:23:21;;;;;;;;;;;;;;;;;;;;;
2023/03/04 08:26:12;;;;;;;8.65;2.08;;;6.40;99.90;;;;;;4887093;29;20056;-94
2023/03/04 08:28:38;;;;;;;5.43;1.33;;;6.40;99.90;;;;;;4936513;29;20027;-91
2023/03/04 08:31:12;;;;;;;6.25;1.65;;;6.70;99.90;;;;;;4936493;29;20027;-92
2023/03/04 08:34:11;;;;;;;6.22;1.60;;;6.80;99.90;;;;;;4936785;29;20027;-92
2023/03/04 08:36:42;;;;;;;7.20;1.55;;;6.20;99.90;;;;;;4911754;29;20044;-90
2023/03/04 08:39:13;;;;;;;5.97;1.13;;;7.50;99.90;;;;;;4917278;29;20476;-91
2023/03/04 08:41:42;;;;;;;8.02;1.10;;;7.20;99.90;;;;;;4917319;29;20119;-91
2023/03/04 08:44:13;;;;;;;9.60;1.17;;;7.00;99.90;;;;;;4933219;29;20036;-91
2023/03/04 08:46:42;;;;;;;5.70;1.10;;;6.70;99.90;;;;;;4935983;29;20028;-93
2023/03/04 08:49:14;;;;;;;4.85;0.93;;;7.70;99.90;;;;;;4936035;29;20031;-93
2023/03/04 08:51:44;;;;;;;1.77;1.00;;;6.70;99.90;;;;;;4938500;29;20035;-93
2023/03/04 08:54:12;;;;;;;5.90;1.53;;;6.80;99.90;;;;;;4941728;29;20098;-92
2023/03/04 08:56:41;;;;;;;4.20;1.08;;;7.20;99.90;;;;;;4943414;29;20346;-92
2023/03/04 08:59:09;;;;;;;4.07;1.17;;;7.20;99.90;;;;;;4948875;29;20073;-90
2023/03/04 09:01:44;;;;;;;3.50;2.15;;;6.20;99.90;;;;;;4940435;29;20074;-94
2023/03/04 09:04:16;;;;;;;6.57;2.95;;;7.40;99.90;;;;;;4942192;29;20027;-91
2023/03/04 09:06:50;;;;;;;3.30;1.25;;;6.70;99.90;;;;;;4953418;29;20490;-95
2023/03/04 09:09:22;;;;;;;5.53;1.33;;;7.10;99.90;;;;;;4961356;29;20043;-94
2023/03/04 09:11:48;;;;;;;5.18;1.10;;;6.50;99.90;;;;;;4953319;29;20027;-94
2023/03/04 09:14:22;;;;;;;2.00;1.05;;;6.40;99.90;;;;;;4953118;29;20031;-94
2023/03/04 09:20:03;;;;;;;4.53;0.93;;;6.70;99.90;;;;;;5192770;23;20114;-90
2023/03/04 09:22:28;;;;;;;2.25;0.95;;;6.70;99.90;;;;;;4928225;23;20060;-88
2023/03/04 09:24:57;;;;;;;3.42;1.00;;;6.80;99.90;;;;;;4938892;23;20119;-90
2023/03/04 09:27:32;;;;;;;3.78;1.50;;;6.80;99.90;;;;;;4937573;29;20100;-93
2023/03/04 09:30:02;;;;;;;7.22;1.50;;;7.30;99.90;;;;;;4935363;29;20036;-92
2023/03/04 09:32:37;;;;;;;6.45;1.20;;;7.20;99.90;;;;;;4933085;29;20514;-92
2023/03/04 09:35:03;;;;;;;4.13;1.35;;;6.80;99.90;;;;;;4927019;29;20126;-91
2023/03/04 09:37:29;;;;;;;6.53;1.23;;;6.70;99.90;;;;;;4925911;29;20020;-94
2023/03/04 09:39:57;;;;;;;7.50;1.25;;;6.70;99.90;;;;;;4928119;29;20238;-94
2023/03/04 09:42:37;;;;;;;2.22;0.98;;;6.80;99.90;;;;;;4932394;29;20036;-93
2023/03/04 09:45:05;;;;;;;1.80;1.10;;;6.80;99.90;;;;;;4938151;29;20020;-91
2023/03/04 09:47:37;;;;;;;4.53;1.02;;;6.90;99.90;;;;;;4922775;29;20029;-92
2023/03/04 09:50:11;;;;;;;4.95;1.30;;;6.90;99.90;;;;;;4940806;23;20071;-94
2023/03/04 09:53:13;;;;;;;9.50;1.30;;;7.00;99.90;;;;;;4932708;29;20114;-94
2023/03/04 09:55:53;;;;;;;5.82;1.35;;;7.10;99.90;;;;;;4931780;29;20111;-92
2023/03/04 09:58:40;;;;;;;3.15;1.75;;;7.00;99.90;;;;;;4921463;29;20106;-94
2023/03/04 10:01:25;;;;;;;8.00;1.70;;;7.20;99.90;;;;;;4925563;29;20027;-93
2023/03/04 10:03:58;;;;;;;4.25;1.95;;;7.10;99.90;;;;;;4925687;29;20028;-92
2023/03/04 10:06:26;;;;;;;6.63;1.85;;;7.30;99.90;;;;;;4931962;29;20108;-93
2023/03/04 10:09:05;;;;;;;6.40;2.63;;;7.30;99.90;;;;;;4919730;29;20119;-91
2023/03/04 10:11:35;;;;;;;3.40;2.20;;;7.30;99.90;;;;;;4925859;29;20051;-94
2023/03/04 10:14:25;;;;;;;8.45;2.35;;;7.30;99.90;;;;;;4932608;29;20032;-93
2023/03/04 10:17:02;;;;;;;5.93;1.40;;;7.40;99.90;;;;;;4924432;29;20051;-94
2023/03/04 10:19:42;;;;;;;6.13;1.58;;;7.40;99.90;;;;;;4921564;29;20425;-90
2023/03/04 10:22:19;;;;;;;5.15;2.05;;;7.40;99.90;;;;;;4928618;29;20028;-95
2023/03/04 10:24:46;;;;;;;6.53;1.80;;;7.30;99.90;;;;;;4934561;29;20083;-94
2023/03/04 10:27:20;;;;;;;4.45;1.80;;;7.30;99.90;;;;;;4921641;29;20048;-95
2023/03/04 10:29:45;;;;;;;6.10;1.90;;;7.20;99.90;;;;;;4929156;29;20036;-91
2023/03/04 10:32:18;;;;;;;3.90;1.63;;;7.20;99.90;;;;;;4929910;29;20024;-91
2023/03/04 10:34:44;;;;;;;5.68;1.13;;;7.10;99.90;;;;;;4938973;29;20087;-92
2023/03/04 10:37:10;;;;;;;6.40;1.58;;;7.50;99.90;;;;;;4927410;29;20420;-91
2023/03/04 10:39:49;;;;;;;8.45;1.73;;;7.10;99.90;;;;;;4929703;29;20676;-92
2023/03/04 10:42:35;;;;;;;6.28;1.40;;;7.00;99.90;;;;;;4932882;29;20080;-91
2023/03/04 10:45:01;;;;;;;2.33;1.38;;;7.70;99.90;;;;;;4936889;29;20038;-91
2023/03/04 10:47:31;;;;;;;5.75;1.50;;;7.50;99.90;;;;;;4927888;29;20127;-91
2023/03/04 10:50:03;;;;;;;23.40;2.45;;;7.10;99.90;;;;;;4928630;29;20072;-91
2023/03/04 10:52:40;;;;;;;6.30;2.00;;;7.20;99.90;;;;;;4925857;29;20028;-92
2023/03/04 10:55:32;;;;;;;5.78;2.03;;;7.10;99.90;;;;;;4922912;29;20032;-93
2023/03/04 10:58:05;;;;;;;8.93;2.40;;;7.20;99.90;;;;;;4919194;29;20024;-92
2023/03/04 11:00:35;;;;;;;2.92;1.60;;;7.90;99.90;;;;;;4918617;29;20024;-93
2023/03/04 11:03:35;;;;;;;;;;;7.90;99.90;;;;;;4919358;29;20025;-91
2023/03/04 11:06:14;;;;;;;4.90;1.65;;;7.50;99.90;;;;;;4924773;29;20307;-92
2023/03/04 11:08:41;;;;;;;5.30;1.67;;;9.00;99.90;;;;;;4931692;29;20058;-92
2023/03/04 11:11:41;;;;;;;4.40;1.67;;;9.00;99.90;;;;;;4935534;29;20039;-92
2023/03/04 11:14:44;;;;;;;8.05;2.70;;;7.80;99.90;;;;;;4936553;29;20028;-93
2023/03/04 11:18:06;;;;;;;5.50;1.75;;;7.90;99.90;;;;;;4934355;29;20438;-92
2023/03/04 11:20:45;;;;;;;5.18;1.60;;;8.10;99.90;;;;;;4932322;29;20475;-92
2023/03/04 11:23:44;;;;;;;6.53;1.42;;;8.50;99.90;;;;;;4931474;29;20023;-93
2023/03/04 11:26:16;;;;;;;3.70;1.60;;;7.50;99.90;;;;;;4934041;29;20024;-93
2023/03/04 11:29:14;;;;;;;8.05;2.03;;;8.40;99.90;;;;;;4926639;29;20031;-91
2023/03/04 11:32:35;;;;;;;6.25;1.35;;;7.70;99.90;;;;;;4936679;29;20047;-92
2023/03/04 11:35:41;;;;;;;5.93;1.98;;;7.70;99.90;;;;;;4918787;23;20079;-93
2023/03/04 11:38:39;;;;;;;9.27;3.20;;;7.70;99.90;;;;;;4937486;29;20054;-95
2023/03/04 11:41:15;;;;;;;9.15;1.88;;;7.80;99.90;;;;;;4944113;23;20059;-92
2023/03/04 11:47:10;;;;;;;5.47;1.40;;;7.90;99.90;;;;;;4955854;23;20529;-92
2023/03/04 11:49:42;;;;;;;3.50;1.60;;;7.50;99.90;;;;;;4925393;23;20082;-92
2023/03/04 11:52:12;;;;;;;3.70;1.58;;;8.60;99.90;;;;;;4943807;23;20047;-93
2023/03/04 11:55:15;;;;;;;4.55;1.98;;;8.00;99.90;;;;;;4943959;23;20094;-93
2023/03/04 12:02:12;;;;;;;8.80;1.50;;;7.90;99.90;;;;;;4859533;29;20039;-93
2023/03/04 12:11:42;;;;;;;6.55;2.22;;;7.50;99.90;;;;;;4994598;23;20066;-91
2023/03/04 12:14:19;;;;;;;4.32;2.22;;;8.00;99.90;;;;;;4857752;29;20124;-90
2023/03/04 12:20:42;;;;;;;2.95;2.17;;;7.90;99.90;;;;;;5408297;23;20411;-94
2023/03/04 12:23:28;;;;;;;5.32;2.45;;;7.90;99.90;;;;;;4924757;29;20036;-93
2023/03/04 12:26:41;;;;;;;5.10;1.88;;;7.90;99.90;;;;;;4936145;29;20035;-91
2023/03/04 12:29:47;;;;;;;2.15;0.90;;;7.90;99.90;;;;;;4939414;29;20066;-92
2023/03/04 12:32:50;;;;;;;7.43;0.73;;;7.90;99.90;;;;;;4933390;29;20388;-93
2023/03/04 12:35:32;;;;;;;2.58;1.10;;;8.00;99.90;;;;;;4917859;29;20024;-91
2023/03/04 12:38:31;;;;;;;3.20;0.98;;;8.10;99.90;;;;;;4921514;29;20036;-91
2023/03/04 12:41:47;;;;;;;3.33;1.10;;;8.10;99.90;;;;;;4933291;29;20110;-92
2023/03/04 12:44:20;;;;;;;2.70;1.13;;;8.10;99.90;;;;;;4933995;29;20024;-92
2023/03/04 12:46:48;;;;;;;6.28;1.40;;;8.70;99.90;;;;;;4931945;29;20071;-90
2023/03/04 12:49:48;;;;;;;2.70;1.00;;;8.80;99.90;;;;;;4934871;29;20087;-92
2023/03/04 12:52:35;;;;;;;2.42;1.50;;;8.30;99.90;;;;;;4926626;29;20032;-91
2023/03/04 12:55:09;;;;;;;2.42;1.30;;;8.30;99.90;;;;;;4939380;29;20156;-91
2023/03/04 12:57:36;;;;;;;4.32;1.60;;;8.30;99.90;;;;;;4949505;29;20020;-92
2023/03/04 13:00:04;;;;;;;10.85;3.38;;;9.60;99.90;;;;;;4926956;29;20027;-90
2023/03/04 13:02:52;;;;;;;7.25;3.42;;;8.80;99.90;;;;;;4939437;29;20035;-91
2023/03/04 13:05:29;;;;;;;9.52;2.50;;;8.10;99.90;;;;;;4927178;29;20028;-89
2023/03/04 13:08:28;;;;;;;6.88;1.70;;;8.00;99.90;;;;;;4937852;29;20130;-91
2023/03/04 13:11:35;;;;;;;6.28;1.90;;;8.40;99.90;;;;;;4920079;29;20048;-91
2023/03/04 13:14:36;;;;;;;6.15;1.17;;;7.90;99.90;;;;;;4921095;29;20035;-91
2023/03/04 13:17:40;;;;;;;5.15;1.00;;;7.90;99.90;;;;;;4927188;29;20020;-91
2023/03/04 13:20:24;;;;;;;8.38;2.38;;;8.00;99.90;;;;;;4930098;29;20376;-91
2023/03/04 13:22:54;;;;;;;9.95;1.60;;;8.00;99.90;;;;;;4951370;29;20028;-90
2023/03/04 13:25:49;;;;;;;6.60;1.40;;;8.00;99.90;;;;;;4939425;29;20110;-92
2023/03/04 13:28:23;;;;;;;7.50;2.00;;;8.10;99.90;;;;;;4930536;29;20162;-91
2023/03/04 13:30:54;;;;;;;10.73;1.65;;;8.20;99.90;;;;;;4936836;29;20102;-91
2023/03/04 13:33:22;;;;;;;3.38;1.10;;;8.90;99.90;;;;;;4940829;29;20063;-94
2023/03/04 13:38:40;;;;;;;5.25;1.40;;;8.40;99.90;;;;;;4943689;23;20423;-92
2023/03/04 13:44:41;;;;;;;6.38;1.13;;;8.40;99.90;;;;;;4963465;23;20515;-95
2023/03/04 13:47:34;;;;;;;7.30;1.10;;;8.40;99.90;;;;;;4994012;23;20083;-95
2023/03/04 13:50:30;;;;;;;7.78;1.35;;;8.90;99.90;;;;;;4940210;29;20015;-95
2023/03/04 13:53:20;;;;;;;8.15;1.25;;;9.70;99.90;;;;;;4960060;29;20040;-94
2023/03/04 13:56:04;;;;;;;8.02;1.73;;;8.90;99.90;;;;;;4948506;28;20059;-93
2023/03/04 13:58:30;;;;;;;9.68;1.60;;;8.80;99.90;;;;;;4945623;29;20027;-93
2023/03/04 14:01:27;;;;;;;7.18;1.60;;;8.80;99.90;;;;;;4949843;28;20067;-96
2023/03/04 14:03:52;;;;;;;11.18;1.77;;;8.40;99.90;;;;;;4928721;29;20032;-94
2023/03/04 14:06:29;;;;;;;10.77;1.75;;;8.70;99.90;;;;;;4932942;29;20376;-95
2023/03/04 14:08:56;;;;;;;12.23;2.08;;;8.70;99.90;;;;;;4938567;29;20038;-91
2023/03/04 14:11:54;;;;;;;9.90;1.58;;;8.20;99.90;;;;;;4931914;29;20028;-92
2023/03/04 14:14:27;;;;;;;13.45;3.45;;;8.50;99.90;;;;;;4931796;29;20488;-93
2023/03/04 14:17:01;;;;;;;16.65;2.92;;;9.60;99.90;;;;;;4931938;29;20040;-94
2023/03/04 14:19:53;;;;;;;12.80;1.83;;;8.40;99.90;;;;;;4926995;29;20035;-92
2023/03/04 14:22:32;;;;;;;5.40;1.38;;;8.20;99.90;;;;;;4932199;29;20036;-94
2023/03/04 14:25:13;;;;;;;9.73;2.35;;;8.20;99.90;;;;;;4934255;29;20103;-92
2023/03/04 14:27:39;;;;;;;8.25;2.00;;;8.20;99.90;;;;;;4941588;29;20547;-94
2023/03/04 14:30:32;;;;;;;10.30;2.35;;;8.30;99.90;;;;;;4934649;29;20063;-93
2023/03/04 14:33:00;;;;;;;7.93;1.77;;;8.20;99.90;;;;;;4905013;29;20032;-93
2023/03/04 14:35:32;;;;;;;10.23;2.20;;;8.60;99.90;;;;;;4955784;29;20055;-94
2023/03/04 14:38:36;;;;;;;11.57;2.38;;;8.40;99.90;;;;;;4941873;29;20050;-93
2023/03/04 14:41:17;;;;;;;9.63;1.85;;;8.20;99.90;;;;;;4941672;29;20023;-93
2023/03/04 14:43:52;;;;;;;11.40;2.30;;;8.20;99.90;;;;;;4941732;29;20028;-93
2023/03/04 14:46:21;;;;;;;11.00;2.55;;;8.60;99.90;;;;;;4931128;29;20123;-95
2023/03/04 14:48:50;;;;;;;7.57;1.40;;;8.20;99.90;;;;;;4941220;29;20028;-94
2023/03/04 14:51:40;;;;;;;8.40;2.25;;;8.40;99.90;;;;;;4926626;29;20024;-92
2023/03/04 14:54:42;;;;;;;6.80;2.03;;;7.70;99.90;;;;;;4938446;29;20028;-93
2023/03/04 14:57:21;;;;;;;12.18;1.77;;;8.10;99.90;;;;;;4845828;29;20030;-92
2023/03/04 14:59:46;;;;;;;20.92;2.90;;;8.70;99.90;;;;;;4841468;29;20111;-94
2023/03/04 15:02:42;;;;;;;16.33;3.20;;;8.70;99.90;;;;;;4843300;29;20038;-94
2023/03/04 15:05:34;;;;;;;27.23;3.35;;;8.10;99.90;;;;;;4873396;29;20476;-93
2023/03/04 15:08:25;;;;;;;11.13;2.40;;;8.00;99.90;;;;;;4928490;29;20032;-95
2023/03/04 15:11:09;;;;;;;;;;;7.90;99.90;;;;;;4928055;29;20067;-93
2023/03/04 15:13:55;;;;;;;13.90;2.20;;;7.80;99.90;;;;;;4933778;29;19962;-94
2023/03/04 15:16:55;;;;;;;10.77;2.28;;;7.80;99.90;;;;;;4921422;29;20015;-94
2023/03/04 15:19:28;;;;;;;15.55;2.97;;;7.80;99.90;;;;;;4941056;29;20079;-93
2023/03/04 15:22:26;;;;;;;23.92;3.78;;;7.90;99.90;;;;;;4925724;29;20054;-92
2023/03/04 15:24:51;;;;;;;15.38;2.65;;;8.10;99.90;;;;;;4929468;29;20028;-93
2023/03/04 15:27:25;;;;;;;20.45;3.50;;;8.30;99.90;;;;;;4933592;29;20108;-93
2023/03/04 15:29:57;;;;;;;11.85;3.03;;;8.20;99.90;;;;;;4922313;29;20040;-93
2023/03/04 15:32:33;;;;;;;16.33;3.30;;;8.20;99.90;;;;;;4926795;29;20076;-94
2023/03/04 15:34:59;;;;;;;13.63;2.47;;;7.50;99.90;;;;;;4923310;29;20035;-95
2023/03/04 15:37:30;;;;;;;10.55;2.35;;;7.60;99.90;;;;;;4923666;29;20095;-95
2023/03/04 15:40:07;;;;;;;14.52;2.80;;;7.30;99.90;;;;;;4934755;29;20034;-95
2023/03/04 15:42:37;;;;;;;18.23;2.28;;;7.60;99.90;;;;;;4938793;29;20111;-94
2023/03/04 15:45:23;;;;;;;14.95;2.88;;;7.60;99.90;;;;;;4940979;29;20028;-94
2023/03/04 15:47:48;;;;;;;11.10;2.53;;;7.50;99.90;;;;;;4922916;29;20082;-93
2023/03/04 15:50:16;;;;;;;12.18;2.25;;;8.10;99.90;;;;;;4939950;29;20036;-93
2023/03/04 15:52:42;;;;;;;13.88;2.58;;;7.60;99.90;;;;;;4931165;29;20031;-94
2023/03/04 15:55:19;;;;;;;12.73;2.15;;;7.60;99.90;;;;;;4937139;29;20043;-93
2023/03/04 15:57:51;;;;;;;15.50;2.28;;;8.10;99.90;;;;;;4937839;29;20468;-94
2023/03/04 16:00:17;;;;;;;11.43;1.70;;;8.40;99.90;;;;;;4931687;29;20091;-93
2023/03/04 16:02:43;;;;;;;18.10;2.35;;;7.50;99.90;;;;;;4923871;29;20076;-93
2023/03/04 16:05:17;;;;;;;10.30;1.55;;;7.50;99.90;;;;;;4934759;29;20031;-94
2023/03/04 16:07:50;;;;;;;6.32;1.67;;;7.70;99.90;;;;;;4937413;29;20028;-95
2023/03/04 16:10:26;;;;;;;11.63;2.10;;;7.60;99.90;;;;;;4936842;29;20388;-93
2023/03/04 16:12:54;;;;;;;10.93;2.22;;;8.00;99.90;;;;;;4938094;29;20031;-95
2023/03/04 16:15:23;;;;;;;8.93;1.75;;;7.70;99.90;;;;;;4944740;29;20030;-93
2023/03/04 16:17:49;;;;;;;6.97;1.67;;;8.40;99.90;;;;;;4927713;29;20023;-93
2023/03/04 16:20:23;;;;;;;6.45;1.40;;;7.50;99.90;;;;;;4930011;29;20047;-91
2023/03/04 16:22:56;;;;;;;6.00;1.70;;;8.20;99.90;;;;;;4923890;29;20420;-90
2023/03/04 16:25:23;;;;;;;6.40;0.75;;;7.30;99.90;;;;;;4940406;29;20024;-91
2023/03/04 16:27:55;;;;;;;3.25;0.98;;;7.80;99.90;;;;;;4921402;29;20031;-94
2023/03/04 16:30:30;;;;;;;4.25;1.10;;;7.20;99.90;;;;;;4936299;29;20039;-94
2023/03/04 16:32:58;;;;;;;4.00;1.00;;;7.20;99.90;;;;;;4935268;29;20156;-94
2023/03/04 16:35:40;;;;;;;8.27;1.30;;;7.50;99.90;;;;;;4940264;29;20051;-94
2023/03/04 16:38:18;;;;;;;3.25;0.98;;;8.10;99.90;;;;;;4935837;29;20023;-94
2023/03/04 16:40:44;;;;;;;2.10;0.75;;;7.80;99.90;;;;;;4933347;29;20034;-91
2023/03/04 16:43:13;;;;;;;5.32;2.35;;;7.30;99.90;;;;;;4932222;29;20465;-92
2023/03/04 16:45:45;;;;;;;5.60;2.20;;;7.70;99.90;;;;;;4941517;29;20111;-95
2023/03/04 16:48:11;;;;;;;4.68;1.83;;;7.90;99.90;;;;;;4942950;29;20043;-94
2023/03/04 16:50:37;;;;;;;4.85;1.55;;;7.60;99.90;;;;;;4935954;29;20472;-93
2023/03/04 16:53:04;;;;;;;6.25;2.05;;;6.90;99.90;;;;;;4936828;29;20020;-93
2023/03/04 16:55:33;;;;;;;6.03;1.20;;;7.20;99.90;;;;;;4943772;29;20040;-94
2023/03/04 16:57:59;;;;;;;12.73;4.10;;;7.90;99.90;;;;;;4927254;29;20412;-93
2023/03/04 17:00:46;;;;;;;7.47;3.05;;;7.40;99.90;;;;;;4937010;29;20101;-93
2023/03/04 17:03:11;;;;;;;3.30;1.42;;;7.20;99.90;;;;;;4927494;29;20194;-93
2023/03/04 17:05:37;;;;;;;8.48;2.00;;;7.10;99.90;;;;;;4938501;29;20103;-94
2023/03/04 17:08:06;;;;;;;11.30;2.35;;;7.50;99.90;;;;;;4923342;29;20400;-95
2023/03/04 17:10:38;;;;;;;4.63;1.33;;;8.00;99.90;;;;;;4929015;29;20403;-95
2023/03/04 17:13:07;;;;;;;4.25;1.60;;;7.80;99.90;;;;;;4944686;29;20028;-95
2023/03/04 17:15:41;;;;;;;11.98;2.20;;;7.50;99.90;;;;;;4944109;29;20028;-93
2023/03/04 17:18:10;;;;;;;4.88;1.73;;;7.60;99.90;;;;;;4948017;28;20040;-95
2023/03/04 17:20:43;;;;;;;10.02;1.92;;;7.30;99.90;;;;;;4945023;29;20028;-95
2023/03/04 17:23:15;;;;;;;9.98;1.80;;;7.60;99.90;;;;;;4945881;29;20044;-93
2023/03/04 17:25:48;;;;;;;8.70;2.78;;;7.50;99.90;;;;;;4946759;29;20038;-93
2023/03/04 17:28:27;;;;;;;5.63;2.50;;;6.70;99.90;;;;;;4948635;29;20020;-93
2023/03/04 17:30:53;;;;;;;7.72;2.78;;;7.50;99.90;;;;;;4945975;29;20039;-93
2023/03/04 17:33:19;;;;;;;7.93;2.08;;;7.60;99.90;;;;;;4932542;29;20373;-93
2023/03/04 17:35:45;;;;;;;6.53;1.90;;;7.60;99.90;;;;;;4910817;29;20024;-95
2023/03/04 17:38:13;;;;;;;5.65;2.08;;;7.60;99.90;;;;;;4940249;29;20020;-94
2023/03/04 17:40:39;;;;;;;6.30;2.05;;;7.50;99.90;;;;;;4934692;29;20020;-96
2023/03/04 17:43:10;;;;;;;11.85;3.10;;;7.00;99.90;;;;;;4933238;29;20028;-95
2023/03/04 17:45:41;;;;;;;10.02;1.88;;;7.00;99.90;;;;;;4936196;29;20019;-96
2023/03/04 17:48:17;;;;;;;8.50;2.25;;;7.20;99.90;;;;;;4928597;29;20055;-95
2023/03/04 17:50:51;;;;;;;10.85;2.38;;;7.00;99.90;;;;;;4931524;29;20036;-95
2023/03/04 17:53:38;;;;;;;7.97;2.28;;;8.40;99.90;;;;;;4935541;29;20031;-95
2023/03/04 17:56:08;;;;;;;10.82;2.30;;;6.60;99.90;;;;;;4933502;29;20016;-94
2023/03/04 17:58:40;;;;;;;6.80;2.42;;;7.00;99.90;;;;;;4920244;29;20035;-95
2023/03/04 18:01:16;;;;;;;13.55;2.92;;;7.20;99.90;;;;;;4924226;29;20120;-95
2023/03/04 18:03:42;;;;;;;10.00;2.47;;;7.60;99.90;;;;;;4924126;29;20032;-94
2023/03/04 18:06:11;;;;;;;11.55;2.75;;;8.20;99.90;;;;;;4932541;29;20527;-94
2023/03/04 18:08:44;;;;;;;10.57;1.80;;;7.50;99.90;;;;;;4905658;29;20418;-95
2023/03/04 18:11:13;;;;;;;7.78;2.03;;;7.60;99.90;;;;;;4919392;29;20028;-94
2023/03/04 18:13:43;;;;;;;8.50;2.40;;;6.30;99.90;;;;;;4924795;29;20016;-94
2023/03/04 18:16:21;;;;;;;8.32;2.45;;;6.50;99.90;;;;;;4921483;29;20036;-95
2023/03/04 18:18:51;;;;;;;7.78;1.80;;;7.30;99.90;;;;;;4916589;29;20088;-95
2023/03/04 18:21:18;;;;;;;6.38;1.67;;;6.90;99.90;;;;;;4925320;29;20043;-94
2023/03/04 18:23:43;;;;;;;4.80;1.10;;;7.50;99.90;;;;;;4922168;29;20021;-93
2023/03/04 18:26:15;;;;;;;8.95;2.25;;;7.60;99.90;;;;;;4921943;29;20053;-92
2023/03/04 18:28:49;;;;;;;4.53;1.48;;;7.10;99.90;;;;;;4938287;28;20024;-93
2023/03/04 18:31:22;;;;;;;3.33;1.63;;;7.10;99.90;;;;;;4929483;29;20021;-93
2023/03/04 18:33:48;;;;;;;4.35;1.63;;;6.80;99.90;;;;;;4904792;29;20029;-93
2023/03/04 18:36:17;;;;;;;4.90;1.88;;;7.50;99.90;;;;;;4901269;29;20089;-93
2023/03/04 18:38:49;;;;;;;5.55;1.55;;;7.10;99.90;;;;;;4900769;29;20036;-92